sensor_id;sensor_type;location;lat;lon;timestamp;P1;durP1;ratioP1;P2;durP2;ratioP2
41077;SDS011;26823;42.662;23.352;2022-08-03T00:02:24;1.55;;;1.45;;
41077;SDS011;26823;42.662;23.352;2022-08-03T00:04:49;1.63;;;1.20;;
41077;SDS011;26823;42.662;23.352;2022-08-03T00:07:15;1.50;;;1.40;;
41077;SDS011;26823;42.662;23.352;2022-08-03T00:09:41;2.58;;;1.55;;
41077;SDS011;26823;42.662;23.352;2022-08-03T00:12:06;1.50;;;1.40;;
41077;SDS011;26823;42.662;23.352;2022-08-03T00:14:32;2.97;;;1.23;;
41077;SDS011;26823;42.662;23.352;2022-08-03T00:16:57;2.30;;;1.33;;
41077;SDS011;26823;42.662;23.352;2022-08-03T00:19:23;1.65;;;1.45;;
41077;SDS011;26823;42.662;23.352;2022-08-03T00:21:48;1.77;;;1.20;;
41077;SDS011;26823;42.662;23.352;2022-08-03T00:24:14;1.38;;;1.27;;
41077;SDS011;26823;42.662;23.352;2022-08-03T00:26:39;4.07;;;1.30;;
41077;SDS011;26823;42.662;23.352;2022-08-03T00:29:04;2.28;;;1.63;;
41077;SDS011;26823;42.662;23.352;2022-08-03T00:31:30;1.60;;;1.50;;
41077;SDS011;26823;42.662;23.352;2022-08-03T00:33:55;1.60;;;1.50;;
41077;SDS011;26823;42.662;23.352;2022-08-03T00:36:21;3.08;;;1.42;;
41077;SDS011;26823;42.662;23.352;2022-08-03T00:38:46;2.38;;;1.40;;
41077;SDS011;26823;42.662;23.352;2022-08-03T00:41:12;1.90;;;1.65;;
41077;SDS011;26823;42.662;23.352;2022-08-03T00:43:37;3.22;;;1.70;;
41077;SDS011;26823;42.662;23.352;2022-08-03T00:46:02;1.50;;;1.40;;
41077;SDS011;26823;42.662;23.352;2022-08-03T00:48:28;2.15;;;1.45;;
41077;SDS011;26823;42.662;23.352;2022-08-03T00:50:53;2.15;;;1.75;;
41077;SDS011;26823;42.662;23.352;2022-08-03T00:53:19;1.92;;;1.30;;
41077;SDS011;26823;42.662;23.352;2022-08-03T00:55:44;1.60;;;1.50;;
41077;SDS011;26823;42.662;23.352;2022-08-03T00:58:10;2.00;;;1.73;;
41077;SDS011;26823;42.662;23.352;2022-08-03T01:00:36;3.25;;;1.67;;
41077;SDS011;26823;42.662;23.352;2022-08-03T01:03:05;1.60;;;1.45;;
41077;SDS011;26823;42.662;23.352;2022-08-03T01:06:06;2.72;;;1.73;;
41077;SDS011;26823;42.662;23.352;2022-08-03T01:14:19;1.63;;;1.30;;
41077;SDS011;26823;42.662;23.352;2022-08-03T01:19:45;2.45;;;1.85;;
41077;SDS011;26823;42.662;23.352;2022-08-03T01:25:02;2.38;;;1.70;;
41077;SDS011;26823;42.662;23.352;2022-08-03T01:30:07;2.20;;;1.98;;
41077;SDS011;26823;42.662;23.352;2022-08-03T01:32:51;1.65;;;1.55;;
41077;SDS011;26823;42.662;23.352;2022-08-03T01:35:30;7.85;;;2.15;;
41077;SDS011;26823;42.662;23.352;2022-08-03T01:38:11;3.88;;;2.03;;
41077;SDS011;26823;42.662;23.352;2022-08-03T01:40:48;1.98;;;1.80;;
41077;SDS011;26823;42.662;23.352;2022-08-03T01:43:18;2.83;;;1.98;;
41077;SDS011;26823;42.662;23.352;2022-08-03T01:45:47;2.53;;;2.33;;
41077;SDS011;26823;42.662;23.352;2022-08-03T01:48:15;2.53;;;1.90;;
41077;SDS011;26823;42.662;23.352;2022-08-03T01:50:43;1.85;;;1.70;;
41077;SDS011;26823;42.662;23.352;2022-08-03T01:53:12;2.20;;;1.98;;
41077;SDS011;26823;42.662;23.352;2022-08-03T01:55:39;3.38;;;1.70;;
41077;SDS011;26823;42.662;23.352;2022-08-03T01:58:06;2.13;;;1.83;;
41077;SDS011;26823;42.662;23.352;2022-08-03T02:00:36;3.00;;;2.20;;
41077;SDS011;26823;42.662;23.352;2022-08-03T02:03:05;2.90;;;2.00;;
41077;SDS011;26823;42.662;23.352;2022-08-03T02:05:32;4.45;;;2.20;;
41077;SDS011;26823;42.662;23.352;2022-08-03T02:07:59;3.50;;;2.13;;
41077;SDS011;26823;42.662;23.352;2022-08-03T02:10:27;1.95;;;1.80;;
41077;SDS011;26823;42.662;23.352;2022-08-03T02:12:54;2.10;;;1.90;;
41077;SDS011;26823;42.662;23.352;2022-08-03T02:15:23;2.08;;;1.80;;
41077;SDS011;26823;42.662;23.352;2022-08-03T02:17:50;2.25;;;2.10;;
41077;SDS011;26823;42.662;23.352;2022-08-03T02:20:18;2.75;;;2.17;;
41077;SDS011;26823;42.662;23.352;2022-08-03T02:22:43;3.20;;;2.15;;
41077;SDS011;26823;42.662;23.352;2022-08-03T02:25:10;3.15;;;2.20;;
41077;SDS011;26823;42.662;23.352;2022-08-03T02:27:38;6.25;;;2.90;;
41077;SDS011;26823;42.662;23.352;2022-08-03T02:30:10;6.05;;;2.55;;
41077;SDS011;26823;42.662;23.352;2022-08-03T02:32:38;2.20;;;1.88;;
41077;SDS011;26823;42.662;23.352;2022-08-03T02:35:08;2.83;;;2.47;;
41077;SDS011;26823;42.662;23.352;2022-08-03T02:37:41;4.65;;;2.20;;
41077;SDS011;26823;42.662;23.352;2022-08-03T02:40:10;4.13;;;2.20;;
41077;SDS011;26823;42.662;23.352;2022-08-03T02:42:38;2.20;;;2.00;;
41077;SDS011;26823;42.662;23.352;2022-08-03T02:45:06;2.40;;;2.10;;
41077;SDS011;26823;42.662;23.352;2022-08-03T02:47:38;2.92;;;2.38;;
41077;SDS011;26823;42.662;23.352;2022-08-03T02:50:05;5.00;;;2.30;;
41077;SDS011;26823;42.662;23.352;2022-08-03T02:52:33;3.63;;;2.08;;
41077;SDS011;26823;42.662;23.352;2022-08-03T02:55:00;2.47;;;2.10;;
41077;SDS011;26823;42.662;23.352;2022-08-03T02:57:28;3.88;;;2.25;;
41077;SDS011;26823;42.662;23.352;2022-08-03T02:59:56;3.17;;;2.05;;
41077;SDS011;26823;42.662;23.352;2022-08-03T03:02:23;3.72;;;2.10;;
41077;SDS011;26823;42.662;23.352;2022-08-03T03:04:49;5.20;;;2.38;;
41077;SDS011;26823;42.662;23.352;2022-08-03T03:07:16;5.90;;;2.30;;
41077;SDS011;26823;42.662;23.352;2022-08-03T03:09:42;10.18;;;2.83;;
41077;SDS011;26823;42.662;23.352;2022-08-03T03:12:09;3.25;;;2.45;;
41077;SDS011;26823;42.662;23.352;2022-08-03T03:14:36;6.28;;;2.70;;
41077;SDS011;26823;42.662;23.352;2022-08-03T03:17:02;3.65;;;2.63;;
41077;SDS011;26823;42.662;23.352;2022-08-03T03:19:30;7.28;;;3.08;;
41077;SDS011;26823;42.662;23.352;2022-08-03T03:21:57;10.82;;;3.22;;
41077;SDS011;26823;42.662;23.352;2022-08-03T03:24:26;4.55;;;2.78;;
41077;SDS011;26823;42.662;23.352;2022-08-03T03:26:52;4.15;;;2.28;;
41077;SDS011;26823;42.662;23.352;2022-08-03T03:29:19;3.60;;;2.70;;
41077;SDS011;26823;42.662;23.352;2022-08-03T03:31:45;3.60;;;2.08;;
41077;SDS011;26823;42.662;23.352;2022-08-03T03:34:11;5.63;;;2.17;;
41077;SDS011;26823;42.662;23.352;2022-08-03T03:36:37;4.40;;;2.17;;
41077;SDS011;26823;42.662;23.352;2022-08-03T03:39:02;2.15;;;1.85;;
41077;SDS011;26823;42.662;23.352;2022-08-03T03:41:28;4.10;;;1.90;;
41077;SDS011;26823;42.662;23.352;2022-08-03T03:43:53;4.32;;;2.65;;
41077;SDS011;26823;42.662;23.352;2022-08-03T03:46:19;3.00;;;1.80;;
41077;SDS011;26823;42.662;23.352;2022-08-03T03:48:45;5.10;;;2.22;;
41077;SDS011;26823;42.662;23.352;2022-08-03T03:51:10;4.38;;;2.90;;
41077;SDS011;26823;42.662;23.352;2022-08-03T03:53:36;3.08;;;2.35;;
41077;SDS011;26823;42.662;23.352;2022-08-03T03:56:02;5.38;;;2.17;;
41077;SDS011;26823;42.662;23.352;2022-08-03T03:58:28;4.40;;;2.35;;
41077;SDS011;26823;42.662;23.352;2022-08-03T04:00:53;3.47;;;2.13;;
41077;SDS011;26823;42.662;23.352;2022-08-03T04:03:19;2.78;;;2.20;;
41077;SDS011;26823;42.662;23.352;2022-08-03T04:05:44;4.30;;;2.50;;
41077;SDS011;26823;42.662;23.352;2022-08-03T04:08:28;3.95;;;2.30;;
41077;SDS011;26823;42.662;23.352;2022-08-03T04:11:16;6.25;;;2.72;;
41077;SDS011;26823;42.662;23.352;2022-08-03T04:13:49;3.15;;;2.22;;
41077;SDS011;26823;42.662;23.352;2022-08-03T04:16:20;6.78;;;2.90;;
41077;SDS011;26823;42.662;23.352;2022-08-03T04:19:01;5.35;;;3.33;;
41077;SDS011;26823;42.662;23.352;2022-08-03T04:21:30;4.93;;;2.72;;
41077;SDS011;26823;42.662;23.352;2022-08-03T04:23:59;6.80;;;2.63;;
41077;SDS011;26823;42.662;23.352;2022-08-03T04:26:29;3.05;;;2.45;;
41077;SDS011;26823;42.662;23.352;2022-08-03T04:28:58;3.88;;;2.80;;
41077;SDS011;26823;42.662;23.352;2022-08-03T04:31:25;4.57;;;2.70;;
41077;SDS011;26823;42.662;23.352;2022-08-03T04:33:52;5.30;;;3.10;;
41077;SDS011;26823;42.662;23.352;2022-08-03T04:36:22;4.28;;;2.95;;
41077;SDS011;26823;42.662;23.352;2022-08-03T04:41:22;5.15;;;3.00;;
41077;SDS011;26823;42.662;23.352;2022-08-03T04:43:50;4.45;;;2.95;;
41077;SDS011;26823;42.662;23.352;2022-08-03T04:46:18;3.28;;;2.53;;
41077;SDS011;26823;42.662;23.352;2022-08-03T04:48:48;3.55;;;3.17;;
41077;SDS011;26823;42.662;23.352;2022-08-03T04:51:14;5.40;;;2.97;;
41077;SDS011;26823;42.662;23.352;2022-08-03T04:53:41;5.93;;;3.28;;
41077;SDS011;26823;42.662;23.352;2022-08-03T04:56:07;3.20;;;2.90;;
41077;SDS011;26823;42.662;23.352;2022-08-03T04:58:33;3.85;;;2.97;;
41077;SDS011;26823;42.662;23.352;2022-08-03T05:00:58;3.95;;;2.90;;
41077;SDS011;26823;42.662;23.352;2022-08-03T05:03:24;7.40;;;2.92;;
41077;SDS011;26823;42.662;23.352;2022-08-03T05:05:53;4.53;;;3.15;;
41077;SDS011;26823;42.662;23.352;2022-08-03T05:08:19;6.40;;;2.47;;
41077;SDS011;26823;42.662;23.352;2022-08-03T05:10:45;4.22;;;2.72;;
41077;SDS011;26823;42.662;23.352;2022-08-03T05:13:10;7.55;;;3.00;;
41077;SDS011;26823;42.662;23.352;2022-08-03T05:15:37;6.05;;;3.03;;
41077;SDS011;26823;42.662;23.352;2022-08-03T05:18:03;10.52;;;3.50;;
41077;SDS011;26823;42.662;23.352;2022-08-03T05:20:28;4.28;;;3.67;;
41077;SDS011;26823;42.662;23.352;2022-08-03T05:22:53;5.97;;;3.40;;
41077;SDS011;26823;42.662;23.352;2022-08-03T05:25:19;4.07;;;3.30;;
41077;SDS011;26823;42.662;23.352;2022-08-03T05:27:44;5.90;;;3.75;;
41077;SDS011;26823;42.662;23.352;2022-08-03T05:30:10;3.97;;;3.22;;
41077;SDS011;26823;42.662;23.352;2022-08-03T05:32:35;4.00;;;3.13;;
41077;SDS011;26823;42.662;23.352;2022-08-03T05:35:01;11.98;;;3.50;;
41077;SDS011;26823;42.662;23.352;2022-08-03T05:37:26;6.68;;;3.40;;
41077;SDS011;26823;42.662;23.352;2022-08-03T05:39:52;6.47;;;3.75;;
41077;SDS011;26823;42.662;23.352;2022-08-03T05:42:17;5.65;;;3.38;;
41077;SDS011;26823;42.662;23.352;2022-08-03T05:44:42;7.50;;;3.20;;
41077;SDS011;26823;42.662;23.352;2022-08-03T05:47:08;9.25;;;3.13;;
41077;SDS011;26823;42.662;23.352;2022-08-03T05:49:33;6.68;;;3.22;;
41077;SDS011;26823;42.662;23.352;2022-08-03T05:51:58;5.47;;;2.97;;
41077;SDS011;26823;42.662;23.352;2022-08-03T05:54:24;7.32;;;4.05;;
41077;SDS011;26823;42.662;23.352;2022-08-03T05:56:49;9.13;;;4.90;;
41077;SDS011;26823;42.662;23.352;2022-08-03T05:59:15;10.90;;;4.53;;
41077;SDS011;26823;42.662;23.352;2022-08-03T06:01:40;11.18;;;3.65;;
41077;SDS011;26823;42.662;23.352;2022-08-03T06:04:06;11.07;;;4.40;;
41077;SDS011;26823;42.662;23.352;2022-08-03T06:06:31;4.53;;;4.13;;
41077;SDS011;26823;42.662;23.352;2022-08-03T06:08:56;7.10;;;4.25;;
41077;SDS011;26823;42.662;23.352;2022-08-03T06:11:22;5.60;;;4.07;;
41077;SDS011;26823;42.662;23.352;2022-08-03T06:13:48;9.75;;;4.00;;
41077;SDS011;26823;42.662;23.352;2022-08-03T06:16:14;7.20;;;3.75;;
41077;SDS011;26823;42.662;23.352;2022-08-03T06:18:39;7.20;;;5.30;;
41077;SDS011;26823;42.662;23.352;2022-08-03T06:21:04;6.95;;;4.60;;
41077;SDS011;26823;42.662;23.352;2022-08-03T06:23:30;8.25;;;3.63;;
41077;SDS011;26823;42.662;23.352;2022-08-03T06:25:55;7.72;;;3.83;;
41077;SDS011;26823;42.662;23.352;2022-08-03T06:28:21;7.18;;;3.85;;
41077;SDS011;26823;42.662;23.352;2022-08-03T06:30:46;4.53;;;3.25;;
41077;SDS011;26823;42.662;23.352;2022-08-03T06:33:11;6.40;;;3.03;;
41077;SDS011;26823;42.662;23.352;2022-08-03T06:35:37;4.10;;;3.35;;
41077;SDS011;26823;42.662;23.352;2022-08-03T06:38:02;4.82;;;3.17;;
41077;SDS011;26823;42.662;23.352;2022-08-03T06:40:28;5.40;;;2.92;;
41077;SDS011;26823;42.662;23.352;2022-08-03T06:42:57;5.18;;;4.53;;
41077;SDS011;26823;42.662;23.352;2022-08-03T06:45:23;4.32;;;3.30;;
41077;SDS011;26823;42.662;23.352;2022-08-03T06:48:05;8.13;;;3.70;;
41077;SDS011;26823;42.662;23.352;2022-08-03T06:50:33;7.43;;;3.80;;
41077;SDS011;26823;42.662;23.352;2022-08-03T06:53:05;9.32;;;3.40;;
41077;SDS011;26823;42.662;23.352;2022-08-03T06:55:34;4.75;;;3.08;;
41077;SDS011;26823;42.662;23.352;2022-08-03T06:57:59;9.65;;;2.85;;
41077;SDS011;26823;42.662;23.352;2022-08-03T07:00:24;7.38;;;3.78;;
41077;SDS011;26823;42.662;23.352;2022-08-03T07:02:51;10.98;;;3.50;;
41077;SDS011;26823;42.662;23.352;2022-08-03T07:05:16;9.57;;;3.55;;
41077;SDS011;26823;42.662;23.352;2022-08-03T07:07:41;6.32;;;3.30;;
41077;SDS011;26823;42.662;23.352;2022-08-03T07:10:08;13.93;;;3.47;;
41077;SDS011;26823;42.662;23.352;2022-08-03T07:12:35;3.10;;;2.38;;
41077;SDS011;26823;42.662;23.352;2022-08-03T07:15:02;22.77;;;4.25;;
41077;SDS011;26823;42.662;23.352;2022-08-03T07:17:29;25.95;;;5.45;;
41077;SDS011;26823;42.662;23.352;2022-08-03T07:19:57;5.53;;;3.10;;
41077;SDS011;26823;42.662;23.352;2022-08-03T07:22:23;6.00;;;3.20;;
41077;SDS011;26823;42.662;23.352;2022-08-03T07:24:49;5.10;;;2.80;;
41077;SDS011;26823;42.662;23.352;2022-08-03T07:27:15;8.32;;;2.83;;
41077;SDS011;26823;42.662;23.352;2022-08-03T07:29:40;6.43;;;2.75;;
41077;SDS011;26823;42.662;23.352;2022-08-03T07:32:06;4.00;;;2.80;;
41077;SDS011;26823;42.662;23.352;2022-08-03T07:34:31;28.60;;;6.22;;
41077;SDS011;26823;42.662;23.352;2022-08-03T07:36:57;24.73;;;5.43;;
41077;SDS011;26823;42.662;23.352;2022-08-03T07:39:22;4.80;;;2.58;;
41077;SDS011;26823;42.662;23.352;2022-08-03T07:41:48;3.60;;;2.50;;
41077;SDS011;26823;42.662;23.352;2022-08-03T07:44:15;10.30;;;3.75;;
41077;SDS011;26823;42.662;23.352;2022-08-03T07:46:44;7.22;;;3.10;;
41077;SDS011;26823;42.662;23.352;2022-08-03T07:49:10;6.00;;;2.90;;
41077;SDS011;26823;42.662;23.352;2022-08-03T07:51:35;9.93;;;3.30;;
41077;SDS011;26823;42.662;23.352;2022-08-03T07:54:06;10.93;;;2.72;;
41077;SDS011;26823;42.662;23.352;2022-08-03T07:56:34;8.38;;;3.05;;
41077;SDS011;26823;42.662;23.352;2022-08-03T07:58:59;12.82;;;4.07;;
41077;SDS011;26823;42.662;23.352;2022-08-03T08:01:27;5.13;;;2.50;;
41077;SDS011;26823;42.662;23.352;2022-08-03T08:03:53;3.67;;;3.08;;
41077;SDS011;26823;42.662;23.352;2022-08-03T08:06:19;6.50;;;3.28;;
41077;SDS011;26823;42.662;23.352;2022-08-03T08:08:45;5.10;;;2.92;;
41077;SDS011;26823;42.662;23.352;2022-08-03T08:11:10;7.40;;;3.58;;
41077;SDS011;26823;42.662;23.352;2022-08-03T08:13:38;20.10;;;4.68;;
41077;SDS011;26823;42.662;23.352;2022-08-03T08:16:04;12.45;;;4.10;;
41077;SDS011;26823;42.662;23.352;2022-08-03T08:18:30;14.88;;;4.63;;
41077;SDS011;26823;42.662;23.352;2022-08-03T08:20:55;5.65;;;3.28;;
41077;SDS011;26823;42.662;23.352;2022-08-03T08:23:21;12.48;;;3.88;;
41077;SDS011;26823;42.662;23.352;2022-08-03T08:25:52;6.70;;;3.72;;
41077;SDS011;26823;42.662;23.352;2022-08-03T08:28:20;6.03;;;3.10;;
41077;SDS011;26823;42.662;23.352;2022-08-03T08:30:46;7.75;;;3.00;;
41077;SDS011;26823;42.662;23.352;2022-08-03T08:33:13;4.57;;;3.22;;
41077;SDS011;26823;42.662;23.352;2022-08-03T08:35:38;9.88;;;4.05;;
41077;SDS011;26823;42.662;23.352;2022-08-03T08:38:04;29.83;;;5.15;;
41077;SDS011;26823;42.662;23.352;2022-08-03T08:40:30;7.75;;;3.22;;
41077;SDS011;26823;42.662;23.352;2022-08-03T08:42:55;7.05;;;3.15;;
41077;SDS011;26823;42.662;23.352;2022-08-03T08:45:24;5.63;;;3.60;;
41077;SDS011;26823;42.662;23.352;2022-08-03T08:47:50;6.28;;;3.20;;
41077;SDS011;26823;42.662;23.352;2022-08-03T08:50:20;4.35;;;2.63;;
41077;SDS011;26823;42.662;23.352;2022-08-03T08:52:49;7.97;;;2.55;;
41077;SDS011;26823;42.662;23.352;2022-08-03T08:55:18;4.30;;;2.97;;
41077;SDS011;26823;42.662;23.352;2022-08-03T08:57:52;3.85;;;2.50;;
41077;SDS011;26823;42.662;23.352;2022-08-03T09:00:23;3.20;;;2.70;;
41077;SDS011;26823;42.662;23.352;2022-08-03T09:03:01;3.22;;;2.72;;
41077;SDS011;26823;42.662;23.352;2022-08-03T09:05:42;3.63;;;2.88;;
41077;SDS011;26823;42.662;23.352;2022-08-03T09:08:08;2.88;;;2.53;;
41077;SDS011;26823;42.662;23.352;2022-08-03T09:10:34;3.95;;;2.80;;
41077;SDS011;26823;42.662;23.352;2022-08-03T09:12:59;5.47;;;2.60;;
41077;SDS011;26823;42.662;23.352;2022-08-03T09:15:26;3.13;;;2.22;;
41077;SDS011;26823;42.662;23.352;2022-08-03T09:17:58;5.43;;;2.55;;
41077;SDS011;26823;42.662;23.352;2022-08-03T09:20:25;5.60;;;2.50;;
41077;SDS011;26823;42.662;23.352;2022-08-03T09:22:54;3.55;;;2.40;;
41077;SDS011;26823;42.662;23.352;2022-08-03T09:25:30;2.80;;;2.25;;
41077;SDS011;26823;42.662;23.352;2022-08-03T09:28:06;3.60;;;2.30;;
41077;SDS011;26823;42.662;23.352;2022-08-03T09:30:37;5.07;;;2.13;;
41077;SDS011;26823;42.662;23.352;2022-08-03T09:33:05;4.55;;;2.47;;
41077;SDS011;26823;42.662;23.352;2022-08-03T09:35:32;3.70;;;1.85;;
41077;SDS011;26823;42.662;23.352;2022-08-03T09:38:08;4.82;;;2.38;;
41077;SDS011;26823;42.662;23.352;2022-08-03T09:40:36;2.63;;;2.00;;
41077;SDS011;26823;42.662;23.352;2022-08-03T09:43:01;2.70;;;2.20;;
41077;SDS011;26823;42.662;23.352;2022-08-03T09:45:27;4.68;;;2.10;;
41077;SDS011;26823;42.662;23.352;2022-08-03T09:47:54;5.72;;;2.00;;
41077;SDS011;26823;42.662;23.352;2022-08-03T09:50:20;3.63;;;1.80;;
41077;SDS011;26823;42.662;23.352;2022-08-03T09:52:46;2.65;;;2.08;;
41077;SDS011;26823;42.662;23.352;2022-08-03T09:55:15;7.63;;;2.83;;
41077;SDS011;26823;42.662;23.352;2022-08-03T09:57:41;5.85;;;2.47;;
41077;SDS011;26823;42.662;23.352;2022-08-03T10:00:14;6.32;;;3.05;;
41077;SDS011;26823;42.662;23.352;2022-08-03T10:02:41;14.07;;;4.32;;
41077;SDS011;26823;42.662;23.352;2022-08-03T10:05:08;7.97;;;2.55;;
41077;SDS011;26823;42.662;23.352;2022-08-03T10:07:46;46.13;;;11.30;;
41077;SDS011;26823;42.662;23.352;2022-08-03T10:10:16;18.17;;;4.85;;
41077;SDS011;26823;42.662;23.352;2022-08-03T10:12:43;3.97;;;2.83;;
41077;SDS011;26823;42.662;23.352;2022-08-03T10:15:09;5.32;;;3.35;;
41077;SDS011;26823;42.662;23.352;2022-08-03T10:17:35;3.35;;;2.03;;
41077;SDS011;26823;42.662;23.352;2022-08-03T10:20:02;10.20;;;2.78;;
41077;SDS011;26823;42.662;23.352;2022-08-03T10:22:31;7.85;;;2.90;;
41077;SDS011;26823;42.662;23.352;2022-08-03T10:24:59;6.20;;;3.00;;
41077;SDS011;26823;42.662;23.352;2022-08-03T10:27:26;4.90;;;2.20;;
41077;SDS011;26823;42.662;23.352;2022-08-03T10:29:57;3.45;;;2.15;;
41077;SDS011;26823;42.662;23.352;2022-08-03T10:32:29;6.65;;;2.05;;
41077;SDS011;26823;42.662;23.352;2022-08-03T10:35:01;2.83;;;1.85;;
41077;SDS011;26823;42.662;23.352;2022-08-03T10:37:32;2.15;;;1.80;;
41077;SDS011;26823;42.662;23.352;2022-08-03T10:40:05;3.97;;;1.67;;
41077;SDS011;26823;42.662;23.352;2022-08-03T10:42:33;1.77;;;1.67;;
41077;SDS011;26823;42.662;23.352;2022-08-03T10:45:04;1.83;;;1.67;;
41077;SDS011;26823;42.662;23.352;2022-08-03T10:47:33;3.70;;;1.63;;
41077;SDS011;26823;42.662;23.352;2022-08-03T10:49:59;2.13;;;1.67;;
41077;SDS011;26823;42.662;23.352;2022-08-03T10:52:25;2.75;;;1.73;;
41077;SDS011;26823;42.662;23.352;2022-08-03T10:54:51;2.25;;;1.90;;
41077;SDS011;26823;42.662;23.352;2022-08-03T10:57:45;1.77;;;1.67;;
41077;SDS011;26823;42.662;23.352;2022-08-03T11:00:24;2.33;;;1.80;;
41077;SDS011;26823;42.662;23.352;2022-08-03T11:03:07;1.80;;;1.55;;
41077;SDS011;26823;42.662;23.352;2022-08-03T11:05:42;2.58;;;1.60;;
41077;SDS011;26823;42.662;23.352;2022-08-03T11:10:42;2.95;;;2.17;;
41077;SDS011;26823;42.662;23.352;2022-08-03T11:13:07;6.38;;;1.83;;
41077;SDS011;26823;42.662;23.352;2022-08-03T11:15:35;4.20;;;1.45;;
41077;SDS011;26823;42.662;23.352;2022-08-03T11:18:08;2.78;;;1.80;;
41077;SDS011;26823;42.662;23.352;2022-08-03T11:20:46;5.72;;;3.97;;
41077;SDS011;26823;42.662;23.352;2022-08-03T11:23:15;3.28;;;2.15;;
41077;SDS011;26823;42.662;23.352;2022-08-03T11:28:36;2.95;;;1.65;;
41077;SDS011;26823;42.662;23.352;2022-08-03T11:39:45;2.88;;;1.50;;
41077;SDS011;26823;42.662;23.352;2022-08-03T11:44:58;2.38;;;1.40;;
41077;SDS011;26823;42.662;23.352;2022-08-03T11:47:26;1.60;;;1.50;;
41077;SDS011;26823;42.662;23.352;2022-08-03T11:49:53;1.52;;;1.42;;
41077;SDS011;26823;42.662;23.352;2022-08-03T11:52:26;2.45;;;1.48;;
41077;SDS011;26823;42.662;23.352;2022-08-03T11:54:51;2.58;;;1.58;;
41077;SDS011;26823;42.662;23.352;2022-08-03T11:57:28;1.67;;;1.58;;
41077;SDS011;26823;42.662;23.352;2022-08-03T11:59:54;2.92;;;1.60;;
41077;SDS011;26823;42.662;23.352;2022-08-03T12:02:20;2.67;;;1.67;;
41077;SDS011;26823;42.662;23.352;2022-08-03T12:07:36;1.80;;;1.70;;
41077;SDS011;26823;42.662;23.352;2022-08-03T12:10:11;8.15;;;1.65;;
41077;SDS011;26823;42.662;23.352;2022-08-03T12:12:37;1.85;;;1.63;;
41077;SDS011;26823;42.662;23.352;2022-08-03T12:15:04;5.90;;;2.10;;
41077;SDS011;26823;42.662;23.352;2022-08-03T12:17:33;11.50;;;2.25;;
41077;SDS011;26823;42.662;23.352;2022-08-03T12:20:04;8.40;;;1.80;;
41077;SDS011;26823;42.662;23.352;2022-08-03T12:22:31;4.72;;;1.77;;
41077;SDS011;26823;42.662;23.352;2022-08-03T12:25:04;28.25;;;3.70;;
41077;SDS011;26823;42.662;23.352;2022-08-03T12:27:31;2.00;;;1.80;;
41077;SDS011;26823;42.662;23.352;2022-08-03T12:29:57;11.20;;;2.70;;
41077;SDS011;26823;42.662;23.352;2022-08-03T12:32:23;3.85;;;2.40;;
41077;SDS011;26823;42.662;23.352;2022-08-03T12:34:50;2.95;;;1.42;;
41077;SDS011;26823;42.662;23.352;2022-08-03T12:37:19;69.90;;;4.72;;
41077;SDS011;26823;42.662;23.352;2022-08-03T12:39:49;1.60;;;1.50;;
41077;SDS011;26823;42.662;23.352;2022-08-03T12:42:19;4.95;;;1.67;;
41077;SDS011;26823;42.662;23.352;2022-08-03T12:44:45;1.73;;;1.63;;
41077;SDS011;26823;42.662;23.352;2022-08-03T12:47:13;3.58;;;1.50;;
41077;SDS011;26823;42.662;23.352;2022-08-03T12:52:13;3.03;;;1.70;;
41077;SDS011;26823;42.662;23.352;2022-08-03T12:54:38;1.45;;;1.35;;
41077;SDS011;26823;42.662;23.352;2022-08-03T12:57:05;1.80;;;1.38;;
41077;SDS011;26823;42.662;23.352;2022-08-03T12:59:36;1.75;;;1.65;;
41077;SDS011;26823;42.662;23.352;2022-08-03T13:02:17;5.50;;;1.80;;
41077;SDS011;26823;42.662;23.352;2022-08-03T13:07:10;4.18;;;1.70;;
41077;SDS011;26823;42.662;23.352;2022-08-03T13:09:50;1.85;;;1.70;;
41077;SDS011;26823;42.662;23.352;2022-08-03T13:12:17;1.60;;;1.50;;
41077;SDS011;26823;42.662;23.352;2022-08-03T13:14:48;2.47;;;2.10;;
41077;SDS011;26823;42.662;23.352;2022-08-03T13:17:15;2.45;;;2.25;;
41077;SDS011;26823;42.662;23.352;2022-08-03T13:19:41;1.98;;;1.67;;
41077;SDS011;26823;42.662;23.352;2022-08-03T13:24:42;2.30;;;1.60;;
41077;SDS011;26823;42.662;23.352;2022-08-03T13:27:09;4.13;;;2.22;;
41077;SDS011;26823;42.662;23.352;2022-08-03T13:29:35;5.38;;;2.33;;
41077;SDS011;26823;42.662;23.352;2022-08-03T13:32:00;3.88;;;1.80;;
41077;SDS011;26823;42.662;23.352;2022-08-03T13:34:27;4.40;;;1.80;;
41077;SDS011;26823;42.662;23.352;2022-08-03T13:36:53;3.50;;;2.10;;
41077;SDS011;26823;42.662;23.352;2022-08-03T13:39:18;10.88;;;1.92;;
41077;SDS011;26823;42.662;23.352;2022-08-03T13:41:44;3.55;;;2.10;;
41077;SDS011;26823;42.662;23.352;2022-08-03T13:44:10;4.05;;;1.90;;
41077;SDS011;26823;42.662;23.352;2022-08-03T13:46:35;3.33;;;1.63;;
41077;SDS011;26823;42.662;23.352;2022-08-03T13:49:01;4.88;;;2.30;;
41077;SDS011;26823;42.662;23.352;2022-08-03T13:51:27;2.65;;;1.80;;
41077;SDS011;26823;42.662;23.352;2022-08-03T13:53:52;4.00;;;1.85;;
41077;SDS011;26823;42.662;23.352;2022-08-03T13:56:17;2.45;;;2.17;;
41077;SDS011;26823;42.662;23.352;2022-08-03T13:58:43;2.33;;;2.13;;
41077;SDS011;26823;42.662;23.352;2022-08-03T14:01:08;2.25;;;2.08;;
41077;SDS011;26823;42.662;23.352;2022-08-03T14:03:34;2.53;;;2.00;;
41077;SDS011;26823;42.662;23.352;2022-08-03T14:05:59;2.08;;;1.92;;
41077;SDS011;26823;42.662;23.352;2022-08-03T14:08:24;7.45;;;1.90;;
41077;SDS011;26823;42.662;23.352;2022-08-03T14:10:50;3.63;;;2.28;;
41077;SDS011;26823;42.662;23.352;2022-08-03T14:13:15;4.57;;;2.40;;
41077;SDS011;26823;42.662;23.352;2022-08-03T14:15:41;3.47;;;2.13;;
41077;SDS011;26823;42.662;23.352;2022-08-03T14:18:07;2.45;;;2.22;;
41077;SDS011;26823;42.662;23.352;2022-08-03T14:20:33;3.42;;;2.25;;
41077;SDS011;26823;42.662;23.352;2022-08-03T14:22:58;6.97;;;2.15;;
41077;SDS011;26823;42.662;23.352;2022-08-03T14:25:23;2.88;;;2.22;;
41077;SDS011;26823;42.662;23.352;2022-08-03T14:27:49;3.00;;;2.13;;
41077;SDS011;26823;42.662;23.352;2022-08-03T14:30:14;9.18;;;2.58;;
41077;SDS011;26823;42.662;23.352;2022-08-03T14:32:40;3.58;;;2.40;;
41077;SDS011;26823;42.662;23.352;2022-08-03T14:35:06;5.15;;;2.00;;
41077;SDS011;26823;42.662;23.352;2022-08-03T14:37:31;2.42;;;2.22;;
41077;SDS011;26823;42.662;23.352;2022-08-03T14:39:57;3.58;;;2.47;;
41077;SDS011;26823;42.662;23.352;2022-08-03T14:42:23;2.35;;;2.15;;
41077;SDS011;26823;42.662;23.352;2022-08-03T14:44:48;2.63;;;2.42;;
41077;SDS011;26823;42.662;23.352;2022-08-03T14:47:14;2.05;;;1.95;;
41077;SDS011;26823;42.662;23.352;2022-08-03T14:49:39;4.00;;;2.65;;
41077;SDS011;26823;42.662;23.352;2022-08-03T14:52:05;21.73;;;3.53;;
41077;SDS011;26823;42.662;23.352;2022-08-03T14:54:31;3.97;;;1.90;;
41077;SDS011;26823;42.662;23.352;2022-08-03T14:56:56;3.30;;;3.00;;
41077;SDS011;26823;42.662;23.352;2022-08-03T14:59:22;2.33;;;2.13;;
41077;SDS011;26823;42.662;23.352;2022-08-03T15:01:48;2.42;;;2.22;;
41077;SDS011;26823;42.662;23.352;2022-08-03T15:04:14;4.93;;;2.00;;
41077;SDS011;26823;42.662;23.352;2022-08-03T15:06:39;3.60;;;1.90;;
41077;SDS011;26823;42.662;23.352;2022-08-03T15:09:04;3.72;;;2.30;;
41077;SDS011;26823;42.662;23.352;2022-08-03T15:11:30;5.50;;;2.40;;
41077;SDS011;26823;42.662;23.352;2022-08-03T15:13:55;4.32;;;2.05;;
41077;SDS011;26823;42.662;23.352;2022-08-03T15:16:21;2.35;;;1.67;;
41077;SDS011;26823;42.662;23.352;2022-08-03T15:18:46;4.45;;;2.20;;
41077;SDS011;26823;42.662;23.352;2022-08-03T15:21:12;3.72;;;2.20;;